sensor_id;sensor_type;location;lat;lon;timestamp;pressure;altitude;pressure_sealevel;temperature;humidity
70909;BME280;58554;52.006;5.926;2024-02-26T00:01:50;99173.16;;;4.87;78.24
70909;BME280;58554;52.006;5.926;2024-02-26T00:04:17;99167.03;;;4.87;78.31
70909;BME280;58554;52.006;5.926;2024-02-26T00:06:44;99164.34;;;4.88;78.32
70909;BME280;58554;52.006;5.926;2024-02-26T00:09:10;99167.78;;;4.89;77.98
70909;BME280;58554;52.006;5.926;2024-02-26T00:11:37;99167.78;;;4.89;78.29
70909;BME280;58554;52.006;5.926;2024-02-26T00:14:03;99169.56;;;4.88;78.19
70909;BME280;58554;52.006;5.926;2024-02-26T00:16:33;99166.03;;;4.90;78.04
70909;BME280;58554;52.006;5.926;2024-02-26T00:18:59;99171.38;;;4.88;78.11
70909;BME280;58554;52.006;5.926;2024-02-26T00:21:26;99176.69;;;4.86;78.16
70909;BME280;58554;52.006;5.926;2024-02-26T00:23:53;99163.66;;;4.85;78.10
70909;BME280;58554;52.006;5.926;2024-02-26T00:26:19;99167.31;;;4.82;78.01
70909;BME280;58554;52.006;5.926;2024-02-26T00:28:46;99163.19;;;4.78;78.07
70909;BME280;58554;52.006;5.926;2024-02-26T00:31:12;99164.16;;;4.77;77.98
70909;BME280;58554;52.006;5.926;2024-02-26T00:33:41;99167.69;;;4.76;78.25
70909;BME280;58554;52.006;5.926;2024-02-26T00:36:08;99163.41;;;4.75;78.17
70909;BME280;58554;52.006;5.926;2024-02-26T00:38:35;99168.72;;;4.74;78.26
70909;BME280;58554;52.006;5.926;2024-02-26T00:41:02;99164.50;;;4.71;78.45
70909;BME280;58554;52.006;5.926;2024-02-26T00:43:28;99163.75;;;4.69;78.41
70909;BME280;58554;52.006;5.926;2024-02-26T00:45:55;99168.41;;;4.64;78.36
70909;BME280;58554;52.006;5.926;2024-02-26T00:48:21;99164.28;;;4.60;78.50
70909;BME280;58554;52.006;5.926;2024-02-26T00:50:51;99156.69;;;4.55;78.60
70909;BME280;58554;52.006;5.926;2024-02-26T00:53:17;99159.41;;;4.54;78.63
70909;BME280;58554;52.006;5.926;2024-02-26T00:55:43;99166.59;;;4.50;78.71
70909;BME280;58554;52.006;5.926;2024-02-26T00:58:10;99158.09;;;4.46;78.85
70909;BME280;58554;52.006;5.926;2024-02-26T01:00:36;99150.38;;;4.43;78.93
70909;BME280;58554;52.006;5.926;2024-02-26T01:03:04;99156.56;;;4.42;78.94
70909;BME280;58554;52.006;5.926;2024-02-26T01:05:30;99155.91;;;4.39;79.03
70909;BME280;58554;52.006;5.926;2024-02-26T01:07:59;99162.16;;;4.36;79.24
70909;BME280;58554;52.006;5.926;2024-02-26T01:10:26;99153.63;;;4.33;79.29
70909;BME280;58554;52.006;5.926;2024-02-26T01:12:52;99154.66;;;4.30;79.26
70909;BME280;58554;52.006;5.926;2024-02-26T01:15:19;99152.13;;;4.28;79.53
70909;BME280;58554;52.006;5.926;2024-02-26T01:17:46;99153.91;;;4.28;79.54
70909;BME280;58554;52.006;5.926;2024-02-26T01:20:12;99154.81;;;4.27;79.60
70909;BME280;58554;52.006;5.926;2024-02-26T01:22:39;99151.47;;;4.25;79.45
70909;BME280;58554;52.006;5.926;2024-02-26T01:25:08;99145.50;;;4.23;79.56
70909;BME280;58554;52.006;5.926;2024-02-26T01:27:35;99142.13;;;4.21;79.75
70909;BME280;58554;52.006;5.926;2024-02-26T01:30:02;99142.28;;;4.18;79.84
70909;BME280;58554;52.006;5.926;2024-02-26T01:32:29;99141.44;;;4.17;79.97
70909;BME280;58554;52.006;5.926;2024-02-26T01:34:55;99138.91;;;4.16;79.91
70909;BME280;58554;52.006;5.926;2024-02-26T01:37:22;99137.22;;;4.15;79.97
70909;BME280;58554;52.006;5.926;2024-02-26T01:39:48;99139.09;;;4.13;80.18
70909;BME280;58554;52.006;5.926;2024-02-26T01:42:18;99141.88;;;4.10;80.14
70909;BME280;58554;52.006;5.926;2024-02-26T01:44:44;99154.94;;;4.10;80.21
70909;BME280;58554;52.006;5.926;2024-02-26T01:47:12;99155.13;;;4.06;80.33
70909;BME280;58554;52.006;5.926;2024-02-26T01:49:40;99154.28;;;4.06;80.35
70909;BME280;58554;52.006;5.926;2024-02-26T01:52:08;99160.44;;;4.05;80.47
70909;BME280;58554;52.006;5.926;2024-02-26T01:54:37;99170.06;;;4.04;80.36
70909;BME280;58554;52.006;5.926;2024-02-26T01:57:07;99172.69;;;4.04;80.50
70909;BME280;58554;52.006;5.926;2024-02-26T01:59:39;99175.38;;;4.03;80.53
70909;BME280;58554;52.006;5.926;2024-02-26T02:02:08;99183.16;;;4.04;80.48
70909;BME280;58554;52.006;5.926;2024-02-26T02:04:39;99196.97;;;4.06;80.43
70909;BME280;58554;52.006;5.926;2024-02-26T02:07:06;99190.81;;;4.07;80.46
70909;BME280;58554;52.006;5.926;2024-02-26T02:09:33;99194.25;;;4.08;80.54
70909;BME280;58554;52.006;5.926;2024-02-26T02:12:00;99195.88;;;4.11;80.54
70909;BME280;58554;52.006;5.926;2024-02-26T02:14:27;99205.31;;;4.13;80.54
70909;BME280;58554;52.006;5.926;2024-02-26T02:16:56;99195.53;;;4.17;80.04
70909;BME280;58554;52.006;5.926;2024-02-26T02:19:22;99208.34;;;4.21;80.38
70909;BME280;58554;52.006;5.926;2024-02-26T02:21:52;99198.66;;;4.23;80.15
70909;BME280;58554;52.006;5.926;2024-02-26T02:24:18;99206.31;;;4.26;80.20
70909;BME280;58554;52.006;5.926;2024-02-26T02:26:45;99204.44;;;4.28;80.18
70909;BME280;58554;52.006;5.926;2024-02-26T02:29:12;99209.59;;;4.30;80.02
70909;BME280;58554;52.006;5.926;2024-02-26T02:31:41;99209.41;;;4.33;80.12
70909;BME280;58554;52.006;5.926;2024-02-26T02:34:09;99214.56;;;4.35;79.98
70909;BME280;58554;52.006;5.926;2024-02-26T02:36:48;99218.91;;;4.36;79.85
70909;BME280;58554;52.006;5.926;2024-02-26T02:39:18;99215.25;;;4.38;79.98
70909;BME280;58554;52.006;5.926;2024-02-26T02:41:45;99219.47;;;4.41;79.89
70909;BME280;58554;52.006;5.926;2024-02-26T02:44:11;99220.28;;;4.41;79.68
70909;BME280;58554;52.006;5.926;2024-02-26T02:46:38;99220.28;;;4.41;79.87
70909;BME280;58554;52.006;5.926;2024-02-26T02:49:08;99226.41;;;4.42;79.67
70909;BME280;58554;52.006;5.926;2024-02-26T02:51:34;99224.63;;;4.42;79.88
70909;BME280;58554;52.006;5.926;2024-02-26T02:54:04;99222.00;;;4.42;79.69
70909;BME280;58554;52.006;5.926;2024-02-26T02:56:30;99225.53;;;4.41;79.59
70909;BME280;58554;52.006;5.926;2024-02-26T02:58:57;99221.16;;;4.42;79.71
70909;BME280;58554;52.006;5.926;2024-02-26T03:01:23;99226.41;;;4.42;79.82
70909;BME280;58554;52.006;5.926;2024-02-26T03:03:50;99236.75;;;4.43;79.63
70909;BME280;58554;52.006;5.926;2024-02-26T03:06:16;99224.53;;;4.44;79.86
70909;BME280;58554;52.006;5.926;2024-02-26T03:08:42;99229.59;;;4.47;79.53
70909;BME280;58554;52.006;5.926;2024-02-26T03:11:15;99225.19;;;4.47;79.68
70909;BME280;58554;52.006;5.926;2024-02-26T03:13:42;99226.88;;;4.48;79.93
70909;BME280;58554;52.006;5.926;2024-02-26T03:16:09;99225.19;;;4.47;79.84
70909;BME280;58554;52.006;5.926;2024-02-26T03:18:35;99220.91;;;4.46;79.75
70909;BME280;58554;52.006;5.926;2024-02-26T03:21:02;99222.69;;;4.46;79.59
70909;BME280;58554;52.006;5.926;2024-02-26T03:23:28;99225.28;;;4.46;79.96
70909;BME280;58554;52.006;5.926;2024-02-26T03:25:55;99227.16;;;4.44;79.92
70909;BME280;58554;52.006;5.926;2024-02-26T03:28:24;99229.00;;;4.42;79.90
70909;BME280;58554;52.006;5.926;2024-02-26T03:30:50;99231.72;;;4.40;79.87
70909;BME280;58554;52.006;5.926;2024-02-26T03:33:17;99229.09;;;4.40;79.91
70909;BME280;58554;52.006;5.926;2024-02-26T03:35:43;99237.84;;;4.39;79.62
70909;BME280;58554;52.006;5.926;2024-02-26T03:38:09;99239.63;;;4.39;79.74
70909;BME280;58554;52.006;5.926;2024-02-26T03:40:36;99240.47;;;4.39;79.80
70909;BME280;58554;52.006;5.926;2024-02-26T03:43:02;99240.59;;;4.38;79.96
70909;BME280;58554;52.006;5.926;2024-02-26T03:45:32;99239.72;;;4.37;80.10
70909;BME280;58554;52.006;5.926;2024-02-26T03:47:58;99250.28;;;4.36;80.02
70909;BME280;58554;52.006;5.926;2024-02-26T03:50:25;99240.81;;;4.33;80.15
70909;BME280;58554;52.006;5.926;2024-02-26T03:52:52;99245.28;;;4.31;80.32
70909;BME280;58554;52.006;5.926;2024-02-26T03:55:18;99243.63;;;4.30;80.20
70909;BME280;58554;52.006;5.926;2024-02-26T03:57:44;99246.31;;;4.28;80.20
70909;BME280;58554;52.006;5.926;2024-02-26T04:00:13;99248.28;;;4.25;80.30
70909;BME280;58554;52.006;5.926;2024-02-26T04:02:42;99245.75;;;4.23;80.48
70909;BME280;58554;52.006;5.926;2024-02-26T04:05:09;99246.00;;;4.19;80.75
70909;BME280;58554;52.006;5.926;2024-02-26T04:07:36;99240.09;;;4.15;80.62
70909;BME280;58554;52.006;5.926;2024-02-26T04:10:03;99237.63;;;4.12;81.12
70909;BME280;58554;52.006;5.926;2024-02-26T04:12:34;99247.44;;;4.09;81.20
70909;BME280;58554;52.006;5.926;2024-02-26T04:15:01;99257.16;;;4.06;80.99
70909;BME280;58554;52.006;5.926;2024-02-26T04:17:28;99257.38;;;4.02;81.12
70909;BME280;58554;52.006;5.926;2024-02-26T04:19:57;99255.84;;;3.98;81.25
70909;BME280;58554;52.006;5.926;2024-02-26T04:22:23;99267.41;;;3.94;81.47
70909;BME280;58554;52.006;5.926;2024-02-26T04:24:50;99265.72;;;3.93;81.55
70909;BME280;58554;52.006;5.926;2024-02-26T04:27:16;99271.91;;;3.92;81.43
70909;BME280;58554;52.006;5.926;2024-02-26T04:29:43;99274.59;;;3.90;81.50
70909;BME280;58554;52.006;5.926;2024-02-26T04:32:09;99270.38;;;3.88;81.90
70909;BME280;58554;52.006;5.926;2024-02-26T04:34:36;99267.00;;;3.85;81.98
70909;BME280;58554;52.006;5.926;2024-02-26T04:37:05;99268.75;;;3.85;81.99
70909;BME280;58554;52.006;5.926;2024-02-26T04:39:31;99281.94;;;3.83;81.84
70909;BME280;58554;52.006;5.926;2024-02-26T04:41:58;99279.47;;;3.80;81.97
70909;BME280;58554;52.006;5.926;2024-02-26T04:44:24;99284.69;;;3.80;81.85
70909;BME280;58554;52.006;5.926;2024-02-26T04:46:50;99282.06;;;3.80;81.93
70909;BME280;58554;52.006;5.926;2024-02-26T04:49:17;99293.38;;;3.81;81.98
70909;BME280;58554;52.006;5.926;2024-02-26T04:51:43;99300.38;;;3.80;81.97
70909;BME280;58554;52.006;5.926;2024-02-26T04:54:12;99295.22;;;3.79;82.11
70909;BME280;58554;52.006;5.926;2024-02-26T04:56:39;99287.31;;;3.80;82.56
70909;BME280;58554;52.006;5.926;2024-02-26T04:59:05;99286.63;;;3.77;82.50
70909;BME280;58554;52.006;5.926;2024-02-26T05:01:32;99288.38;;;3.76;82.41
70909;BME280;58554;52.006;5.926;2024-02-26T05:03:58;99293.63;;;3.76;82.78
70909;BME280;58554;52.006;5.926;2024-02-26T05:06:25;99300.56;;;3.77;82.94
70909;BME280;58554;52.006;5.926;2024-02-26T05:08:51;99299.63;;;3.78;82.89
70909;BME280;58554;52.006;5.926;2024-02-26T05:11:20;99294.31;;;3.80;82.82
70909;BME280;58554;52.006;5.926;2024-02-26T05:13:47;99300.38;;;3.80;82.89
70909;BME280;58554;52.006;5.926;2024-02-26T05:16:14;99301.13;;;3.82;82.80
70909;BME280;58554;52.006;5.926;2024-02-26T05:18:40;99297.69;;;3.82;82.63
70909;BME280;58554;52.006;5.926;2024-02-26T05:21:07;99313.38;;;3.82;83.00
70909;BME280;58554;52.006;5.926;2024-02-26T05:23:33;99308.16;;;3.82;83.17
70909;BME280;58554;52.006;5.926;2024-02-26T05:26:00;99310.00;;;3.80;82.97
70909;BME280;58554;52.006;5.926;2024-02-26T05:28:29;99308.28;;;3.79;83.35
70909;BME280;58554;52.006;5.926;2024-02-26T05:30:56;99303.06;;;3.79;83.23
70909;BME280;58554;52.006;5.926;2024-02-26T05:33:22;99308.41;;;3.77;83.34
70909;BME280;58554;52.006;5.926;2024-02-26T05:35:49;99317.06;;;3.78;83.33
70909;BME280;58554;52.006;5.926;2024-02-26T05:38:15;99306.69;;;3.76;83.45
70909;BME280;58554;52.006;5.926;2024-02-26T05:40:42;99311.00;;;3.77;83.55
70909;BME280;58554;52.006;5.926;2024-02-26T05:43:08;99303.16;;;3.77;83.75
70909;BME280;58554;52.006;5.926;2024-02-26T05:45:38;99315.22;;;3.80;83.60
70909;BME280;58554;52.006;5.926;2024-02-26T05:48:05;99316.06;;;3.80;83.82
70909;BME280;58554;52.006;5.926;2024-02-26T05:50:32;99329.13;;;3.80;83.63
70909;BME280;58554;52.006;5.926;2024-02-26T05:52:58;99328.22;;;3.81;83.58
70909;BME280;58554;52.006;5.926;2024-02-26T05:55:24;99313.53;;;3.79;83.69
70909;BME280;58554;52.006;5.926;2024-02-26T05:57:51;99318.84;;;3.77;83.60
70909;BME280;58554;52.006;5.926;2024-02-26T06:00:18;99316.31;;;3.76;83.63
70909;BME280;58554;52.006;5.926;2024-02-26T06:02:47;99321.53;;;3.76;84.12
70909;BME280;58554;52.006;5.926;2024-02-26T06:05:14;99331.94;;;3.77;84.04
70909;BME280;58554;52.006;5.926;2024-02-26T06:07:40;99327.53;;;3.78;83.85
70909;BME280;58554;52.006;5.926;2024-02-26T06:10:07;99318.69;;;3.80;84.11
70909;BME280;58554;52.006;5.926;2024-02-26T06:12:35;99334.28;;;3.82;83.96
70909;BME280;58554;52.006;5.926;2024-02-26T06:15:02;99336.06;;;3.81;83.99
70909;BME280;58554;52.006;5.926;2024-02-26T06:17:29;99329.06;;;3.82;84.09
70909;BME280;58554;52.006;5.926;2024-02-26T06:19:58;99341.19;;;3.83;83.70
70909;BME280;58554;52.006;5.926;2024-02-26T06:22:25;99347.28;;;3.83;83.77
70909;BME280;58554;52.006;5.926;2024-02-26T06:24:51;99356.03;;;3.82;84.13
70909;BME280;58554;52.006;5.926;2024-02-26T06:27:18;99360.44;;;3.82;83.98
70909;BME280;58554;52.006;5.926;2024-02-26T06:29:44;99363.06;;;3.82;83.97
70909;BME280;58554;52.006;5.926;2024-02-26T06:32:11;99361.19;;;3.84;83.98
70909;BME280;58554;52.006;5.926;2024-02-26T06:34:37;99374.28;;;3.84;83.73
70909;BME280;58554;52.006;5.926;2024-02-26T06:37:07;99368.22;;;3.83;83.92
70909;BME280;58554;52.006;5.926;2024-02-26T06:39:34;99364.66;;;3.84;83.83
70909;BME280;58554;52.006;5.926;2024-02-26T06:42:00;99369.88;;;3.84;84.11
70909;BME280;58554;52.006;5.926;2024-02-26T06:44:28;99375.94;;;3.85;84.12
70909;BME280;58554;52.006;5.926;2024-02-26T06:46:54;99370.72;;;3.85;83.94
70909;BME280;58554;52.006;5.926;2024-02-26T06:49:21;99378.50;;;3.86;83.97
70909;BME280;58554;52.006;5.926;2024-02-26T06:51:47;99378.56;;;3.85;84.30
70909;BME280;58554;52.006;5.926;2024-02-26T06:54:16;99380.28;;;3.86;84.12
70909;BME280;58554;52.006;5.926;2024-02-26T06:56:43;99393.34;;;3.86;84.11
70909;BME280;58554;52.006;5.926;2024-02-26T06:59:10;99393.41;;;3.84;84.22
70909;BME280;58554;52.006;5.926;2024-02-26T07:01:36;99394.34;;;3.83;84.13
70909;BME280;58554;52.006;5.926;2024-02-26T07:04:03;99394.25;;;3.85;83.99
70909;BME280;58554;52.006;5.926;2024-02-26T07:06:29;99399.41;;;3.86;84.04
70909;BME280;58554;52.006;5.926;2024-02-26T07:08:56;99407.34;;;3.85;84.12
70909;BME280;58554;52.006;5.926;2024-02-26T07:11:25;99407.34;;;3.85;84.18
70909;BME280;58554;52.006;5.926;2024-02-26T07:13:51;99410.88;;;3.84;84.34
70909;BME280;58554;52.006;5.926;2024-02-26T07:16:18;99416.03;;;3.85;84.38
70909;BME280;58554;52.006;5.926;2024-02-26T07:18:44;99414.34;;;3.84;84.62
70909;BME280;58554;52.006;5.926;2024-02-26T07:21:11;99416.94;;;3.84;84.75
70909;BME280;58554;52.006;5.926;2024-02-26T07:23:38;99417.88;;;3.83;84.73
70909;BME280;58554;52.006;5.926;2024-02-26T07:26:04;99415.28;;;3.83;84.47
70909;BME280;58554;52.006;5.926;2024-02-26T07:28:33;99419.63;;;3.83;84.74
70909;BME280;58554;52.006;5.926;2024-02-26T07:31:00;99430.97;;;3.83;84.86
70909;BME280;58554;52.006;5.926;2024-02-26T07:33:26;99437.88;;;3.84;84.73
70909;BME280;58554;52.006;5.926;2024-02-26T07:35:53;99434.34;;;3.85;84.83
70909;BME280;58554;52.006;5.926;2024-02-26T07:38:19;99436.97;;;3.85;85.07
70909;BME280;58554;52.006;5.926;2024-02-26T07:40:46;99432.56;;;3.86;85.27
70909;BME280;58554;52.006;5.926;2024-02-26T07:43:12;99431.72;;;3.85;85.40
70909;BME280;58554;52.006;5.926;2024-02-26T07:45:41;99429.13;;;3.85;85.37
70909;BME280;58554;52.006;5.926;2024-02-26T07:48:08;99437.81;;;3.86;85.51
70909;BME280;58554;52.006;5.926;2024-02-26T07:50:34;99437.72;;;3.88;85.35
70909;BME280;58554;52.006;5.926;2024-02-26T07:53:00;99443.72;;;3.90;85.42
70909;BME280;58554;52.006;5.926;2024-02-26T07:55:27;99450.63;;;3.91;85.52
70909;BME280;58554;52.006;5.926;2024-02-26T07:57:53;99447.94;;;3.92;85.70
70909;BME280;58554;52.006;5.926;2024-02-26T08:00:21;99443.50;;;3.94;85.69
70909;BME280;58554;52.006;5.926;2024-02-26T08:02:50;99446.88;;;3.96;85.74
70909;BME280;58554;52.006;5.926;2024-02-26T08:05:16;99452.94;;;3.97;85.82
70909;BME280;58554;52.006;5.926;2024-02-26T08:07:43;99456.38;;;3.97;85.90
70909;BME280;58554;52.006;5.926;2024-02-26T08:10:10;99447.72;;;3.97;85.93
70909;BME280;58554;52.006;5.926;2024-02-26T08:12:36;99455.63;;;3.95;86.00
70909;BME280;58554;52.006;5.926;2024-02-26T08:15:04;99462.56;;;3.96;86.04
70909;BME280;58554;52.006;5.926;2024-02-26T08:17:32;99457.34;;;3.96;85.98
70909;BME280;58554;52.006;5.926;2024-02-26T08:20:01;99458.25;;;3.95;85.96
70909;BME280;58554;52.006;5.926;2024-02-26T08:22:28;99467.78;;;3.96;86.07
70909;BME280;58554;52.006;5.926;2024-02-26T08:24:54;99479.09;;;3.97;86.25
70909;BME280;58554;52.006;5.926;2024-02-26T08:27:21;99472.09;;;3.97;86.17
70909;BME280;58554;52.006;5.926;2024-02-26T08:29:47;99479.16;;;3.95;86.23
70909;BME280;58554;52.006;5.926;2024-02-26T08:32:14;99476.53;;;3.95;86.28
70909;BME280;58554;52.006;5.926;2024-02-26T08:34:40;99486.09;;;3.96;86.55
70909;BME280;58554;52.006;5.926;2024-02-26T08:37:09;99481.78;;;3.95;86.10
70909;BME280;58554;52.006;5.926;2024-02-26T08:39:36;99483.63;;;3.93;86.35
70909;BME280;58554;52.006;5.926;2024-02-26T08:42:03;99487.06;;;3.94;86.51
70909;BME280;58554;52.006;5.926;2024-02-26T08:44:29;99503.63;;;3.94;86.66
70909;BME280;58554;52.006;5.926;2024-02-26T08:46:56;99491.47;;;3.93;86.34
70909;BME280;58554;52.006;5.926;2024-02-26T08:49:22;99496.69;;;3.93;86.43
70909;BME280;58554;52.006;5.926;2024-02-26T08:51:49;99488.94;;;3.92;86.62
70909;BME280;58554;52.006;5.926;2024-02-26T08:54:18;99492.41;;;3.92;86.88
70909;BME280;58554;52.006;5.926;2024-02-26T08:56:44;99495.03;;;3.92;86.94
70909;BME280;58554;52.006;5.926;2024-02-26T08:59:11;99484.63;;;3.91;87.14
70909;BME280;58554;52.006;5.926;2024-02-26T09:01:37;99499.41;;;3.92;87.05
70909;BME280;58554;52.006;5.926;2024-02-26T09:04:03;99499.31;;;3.93;87.04
70909;BME280;58554;52.006;5.926;2024-02-26T09:06:30;99507.03;;;3.96;86.92
70909;BME280;58554;52.006;5.926;2024-02-26T09:08:56;99501.78;;;3.96;87.13
70909;BME280;58554;52.006;5.926;2024-02-26T09:11:25;99512.91;;;4.00;87.23
70909;BME280;58554;52.006;5.926;2024-02-26T09:13:52;99524.16;;;4.02;87.30
70909;BME280;58554;52.006;5.926;2024-02-26T09:16:18;99523.19;;;4.04;87.46
70909;BME280;58554;52.006;5.926;2024-02-26T09:18:45;99538.00;;;4.04;87.02
70909;BME280;58554;52.006;5.926;2024-02-26T09:21:11;99542.31;;;4.05;87.36
70909;BME280;58554;52.006;5.926;2024-02-26T09:23:38;99526.56;;;4.06;87.02
70909;BME280;58554;52.006;5.926;2024-02-26T09:26:05;99533.47;;;4.07;87.34
70909;BME280;58554;52.006;5.926;2024-02-26T09:28:34;99539.41;;;4.11;87.46
70909;BME280;58554;52.006;5.926;2024-02-26T09:31:00;99542.78;;;4.13;87.41
70909;BME280;58554;52.006;5.926;2024-02-26T09:33:27;99542.72;;;4.15;87.32
70909;BME280;58554;52.006;5.926;2024-02-26T09:35:53;99540.09;;;4.15;87.43
70909;BME280;58554;52.006;5.926;2024-02-26T09:38:20;99553.09;;;4.16;87.23
70909;BME280;58554;52.006;5.926;2024-02-26T09:40:46;99543.50;;;4.17;87.32
70909;BME280;58554;52.006;5.926;2024-02-26T09:43:14;99559.09;;;4.18;87.14
70909;BME280;58554;52.006;5.926;2024-02-26T09:45:49;99563.34;;;4.21;87.34
70909;BME280;58554;52.006;5.926;2024-02-26T09:48:18;99565.97;;;4.21;87.34
70909;BME280;58554;52.006;5.926;2024-02-26T09:50:46;99565.03;;;4.22;87.28
70909;BME280;58554;52.006;5.926;2024-02-26T09:53:13;99575.41;;;4.23;87.47
70909;BME280;58554;52.006;5.926;2024-02-26T09:55:40;99565.97;;;4.21;87.48
70909;BME280;58554;52.006;5.926;2024-02-26T09:58:06;99571.25;;;4.19;87.26
70909;BME280;58554;52.006;5.926;2024-02-26T10:00:36;99578.94;;;4.22;87.54
70909;BME280;58554;52.006;5.926;2024-02-26T10:03:09;99576.25;;;4.24;87.63
70909;BME280;58554;52.006;5.926;2024-02-26T10:05:41;99586.72;;;4.24;87.51
70909;BME280;58554;52.006;5.926;2024-02-26T10:08:11;99597.88;;;4.27;87.29
70909;BME280;58554;52.006;5.926;2024-02-26T10:10:40;99608.19;;;4.31;87.36
70909;BME280;58554;52.006;5.926;2024-02-26T10:13:07;99598.66;;;4.30;87.22
70909;BME280;58554;52.006;5.926;2024-02-26T10:15:34;99610.88;;;4.29;87.15
70909;BME280;58554;52.006;5.926;2024-02-26T10:18:06;99605.56;;;4.31;87.24
70909;BME280;58554;52.006;5.926;2024-02-26T10:20:33;99602.94;;;4.31;87.28
70909;BME280;58554;52.006;5.926;2024-02-26T10:23:02;99611.50;;;4.34;87.06
70909;BME280;58554;52.006;5.926;2024-02-26T10:25:29;99620.13;;;4.36;87.28
70909;BME280;58554;52.006;5.926;2024-02-26T10:27:57;99613.13;;;4.37;87.44
70909;BME280;58554;52.006;5.926;2024-02-26T10:30:27;99617.44;;;4.38;87.34
70909;BME280;58554;52.006;5.926;2024-02-26T10:32:54;99618.22;;;4.40;87.37
70909;BME280;58554;52.006;5.926;2024-02-26T10:35:25;99620.81;;;4.40;87.00
70909;BME280;58554;52.006;5.926;2024-02-26T10:37:51;99635.66;;;4.39;86.95
70909;BME280;58554;52.006;5.926;2024-02-26T10:40:18;99637.44;;;4.39;86.95
70909;BME280;58554;52.006;5.926;2024-02-26T10:42:45;99640.06;;;4.39;87.08
70909;BME280;58554;52.006;5.926;2024-02-26T10:45:11;99639.22;;;4.38;87.06
70909;BME280;58554;52.006;5.926;2024-02-26T10:47:38;99645.34;;;4.37;86.96
70909;BME280;58554;52.006;5.926;2024-02-26T10:50:07;99658.38;;;4.39;86.99
70909;BME280;58554;52.006;5.926;2024-02-26T10:52:37;99649.69;;;4.38;87.03
70909;BME280;58554;52.006;5.926;2024-02-26T10:55:05;99662.69;;;4.40;86.82
70909;BME280;58554;52.006;5.926;2024-02-26T10:57:33;99672.31;;;4.39;86.91
70909;BME280;58554;52.006;5.926;2024-02-26T11:00:08;99681.88;;;4.40;87.00
70909;BME280;58554;52.006;5.926;2024-02-26T11:02:40;99683.53;;;4.41;87.21
70909;BME280;58554;52.006;5.926;2024-02-26T11:05:08;99683.66;;;4.40;86.94
70909;BME280;58554;52.006;5.926;2024-02-26T11:07:41;99692.34;;;4.40;87.02
70909;BME280;58554;52.006;5.926;2024-02-26T11:10:11;99683.66;;;4.40;87.29
70909;BME280;58554;52.006;5.926;2024-02-26T11:12:39;99701.97;;;4.40;87.32
70909;BME280;58554;52.006;5.926;2024-02-26T11:15:08;99704.59;;;4.40;87.44
70909;BME280;58554;52.006;5.926;2024-02-26T11:17:36;99715.88;;;4.40;87.04
70909;BME280;58554;52.006;5.926;2024-02-26T11:20:05;99707.97;;;4.42;87.38
70909;BME280;58554;52.006;5.926;2024-02-26T11:22:39;99708.81;;;4.42;87.23
70909;BME280;58554;52.006;5.926;2024-02-26T11:25:07;99713.28;;;4.40;86.93
70909;BME280;58554;52.006;5.926;2024-02-26T11:27:37;99711.44;;;4.42;87.45
70909;BME280;58554;52.006;5.926;2024-02-26T11:30:10;99708.81;;;4.42;87.32
70909;BME280;58554;52.006;5.926;2024-02-26T11:32:38;99723.56;;;4.43;87.41
70909;BME280;58554;52.006;5.926;2024-02-26T11:35:06;99722.66;;;4.44;87.13
70909;BME280;58554;52.006;5.926;2024-02-26T11:37:33;99726.13;;;4.45;87.09
70909;BME280;58554;52.006;5.926;2024-02-26T11:40:04;99725.28;;;4.44;87.45
70909;BME280;58554;52.006;5.926;2024-02-26T11:42:43;99722.66;;;4.44;87.43
70909;BME280;58554;52.006;5.926;2024-02-26T11:48:20;99731.13;;;4.50;87.34
70909;BME280;58554;52.006;5.926;2024-02-26T11:50:49;99733.75;;;4.50;87.65
70909;BME280;58554;52.006;5.926;2024-02-26T11:53:20;99723.16;;;4.53;87.81
70909;BME280;58554;52.006;5.926;2024-02-26T11:56:13;99720.53;;;4.53;87.43
70909;BME280;58554;52.006;5.926;2024-02-26T11:58:47;99720.53;;;4.53;87.59
70909;BME280;58554;52.006;5.926;2024-02-26T12:01:42;99721.22;;;4.56;87.48
70909;BME280;58554;52.006;5.926;2024-02-26T12:04:14;99722.13;;;4.55;87.30
70909;BME280;58554;52.006;5.926;2024-02-26T12:06:45;99727.31;;;4.57;87.48
70909;BME280;58554;52.006;5.926;2024-02-26T12:09:13;99733.44;;;4.56;87.36
70909;BME280;58554;52.006;5.926;2024-02-26T12:11:59;99736.00;;;4.57;87.51
70909;BME280;58554;52.006;5.926;2024-02-26T12:14:27;99733.31;;;4.59;87.47
70909;BME280;58554;52.006;5.926;2024-02-26T12:16:55;99743.69;;;4.60;87.36
70909;BME280;58554;52.006;5.926;2024-02-26T12:19:22;99744.56;;;4.61;87.18
70909;BME280;58554;52.006;5.926;2024-02-26T12:21:51;99746.31;;;4.60;87.30
70909;BME280;58554;52.006;5.926;2024-02-26T12:24:19;99756.72;;;4.62;87.48
70909;BME280;58554;52.006;5.926;2024-02-26T12:26:46;99749.63;;;4.64;87.49
70909;BME280;58554;52.006;5.926;2024-02-26T12:29:15;99755.66;;;4.66;87.28
70909;BME280;58554;52.006;5.926;2024-02-26T12:31:42;99761.59;;;4.70;87.41
70909;BME280;58554;52.006;5.926;2024-02-26T12:34:10;99763.25;;;4.71;87.04
70909;BME280;58554;52.006;5.926;2024-02-26T12:36:36;99771.06;;;4.72;87.16
70909;BME280;58554;52.006;5.926;2024-02-26T12:39:03;99770.22;;;4.72;87.15
70909;BME280;58554;52.006;5.926;2024-02-26T12:41:31;99770.03;;;4.75;87.23
70909;BME280;58554;52.006;5.926;2024-02-26T12:43:59;99776.94;;;4.77;87.39
70909;BME280;58554;52.006;5.926;2024-02-26T12:46:28;99780.31;;;4.79;87.33
70909;BME280;58554;52.006;5.926;2024-02-26T12:48:56;99777.47;;;4.84;87.38
70909;BME280;58554;52.006;5.926;2024-02-26T12:51:23;99785.94;;;4.89;87.18
70909;BME280;58554;52.006;5.926;2024-02-26T12:53:50;99792.88;;;4.90;87.11
70909;BME280;58554;52.006;5.926;2024-02-26T12:56:18;99785.88;;;4.91;86.96
70909;BME280;58554;52.006;5.926;2024-02-26T12:58:45;99800.75;;;4.90;87.01
70909;BME280;58554;52.006;5.926;2024-02-26T13:01:14;99800.66;;;4.92;87.06
70909;BME280;58554;52.006;5.926;2024-02-26T13:03:46;99803.19;;;4.93;87.04
70909;BME280;58554;52.006;5.926;2024-02-26T13:06:13;99806.75;;;4.92;87.10
70909;BME280;58554;52.006;5.926;2024-02-26T13:08:40;99800.56;;;4.93;86.92
70909;BME280;58554;52.006;5.926;2024-02-26T13:11:07;99795.34;;;4.93;87.21
70909;BME280;58554;52.006;5.926;2024-02-26T13:13:35;99815.44;;;4.93;86.99
70909;BME280;58554;52.006;5.926;2024-02-26T13:16:03;99810.22;;;4.93;86.87